sensor_id;sensor_type;location;lat;lon;timestamp;pressure;altitude;pressure_sealevel;temperature;humidity
35151;BME280;55720;51.972;4.624;2023-02-19T00:01:28;102100.41;;;8.69;100.00
35151;BME280;55720;51.972;4.624;2023-02-19T00:03:55;102111.66;;;8.67;100.00
35151;BME280;55720;51.972;4.624;2023-02-19T00:06:22;102120.38;;;8.69;100.00
35151;BME280;55720;51.972;4.624;2023-02-19T00:08:48;102122.88;;;8.66;100.00
35151;BME280;55720;51.972;4.624;2023-02-19T00:11:16;102121.78;;;8.67;100.00
35151;BME280;55720;51.972;4.624;2023-02-19T00:13:43;102123.97;;;8.65;100.00
35151;BME280;55720;51.972;4.624;2023-02-19T00:16:13;102119.63;;;8.64;100.00
35151;BME280;55720;51.972;4.624;2023-02-19T00:18:39;102116.91;;;8.64;100.00
35151;BME280;55720;51.972;4.624;2023-02-19T00:21:04;102109.75;;;8.68;100.00
35151;BME280;55720;51.972;4.624;2023-02-19T00:23:31;102105.88;;;8.69;100.00
35151;BME280;55720;51.972;4.624;2023-02-19T00:26:00;102103.63;;;8.76;100.00
35151;BME280;55720;51.972;4.624;2023-02-19T00:28:25;102099.25;;;8.75;100.00
35151;BME280;55720;51.972;4.624;2023-02-19T00:30:51;102083.34;;;8.77;100.00
35151;BME280;55720;51.972;4.624;2023-02-19T00:33:17;102071.28;;;8.78;100.00
35151;BME280;55720;51.972;4.624;2023-02-19T00:35:42;102065.50;;;8.79;100.00
35151;BME280;55720;51.972;4.624;2023-02-19T00:38:08;102044.72;;;8.78;100.00
35151;BME280;55720;51.972;4.624;2023-02-19T00:40:33;102034.53;;;8.84;100.00
35151;BME280;55720;51.972;4.624;2023-02-19T00:42:58;102009.88;;;8.84;100.00
35151;BME280;55720;51.972;4.624;2023-02-19T00:45:24;101995.00;;;8.90;100.00
35151;BME280;55720;51.972;4.624;2023-02-19T00:47:49;101976.38;;;8.92;100.00
35151;BME280;55720;51.972;4.624;2023-02-19T00:50:15;101958.25;;;8.96;100.00
35151;BME280;55720;51.972;4.624;2023-02-19T00:52:40;101936.56;;;9.00;100.00
35151;BME280;55720;51.972;4.624;2023-02-19T00:55:05;101902.88;;;8.99;100.00
35151;BME280;55720;51.972;4.624;2023-02-19T00:57:31;101886.94;;;9.01;100.00
35151;BME280;55720;51.972;4.624;2023-02-19T00:59:56;101876.78;;;9.02;100.00
35151;BME280;55720;51.972;4.624;2023-02-19T01:02:22;101862.28;;;9.01;100.00
35151;BME280;55720;51.972;4.624;2023-02-19T01:04:47;101854.00;;;9.06;100.00
35151;BME280;55720;51.972;4.624;2023-02-19T01:07:13;101834.81;;;9.06;100.00
35151;BME280;55720;51.972;4.624;2023-02-19T01:09:38;101812.09;;;9.06;100.00
35151;BME280;55720;51.972;4.624;2023-02-19T01:12:06;101801.28;;;9.14;100.00
35151;BME280;55720;51.972;4.624;2023-02-19T01:14:31;101782.91;;;9.15;100.00
35151;BME280;55720;51.972;4.624;2023-02-19T01:16:57;101764.72;;;9.19;100.00
35151;BME280;55720;51.972;4.624;2023-02-19T01:19:22;101753.19;;;9.22;100.00
35151;BME280;55720;51.972;4.624;2023-02-19T01:21:48;101732.66;;;9.19;100.00
35151;BME280;55720;51.972;4.624;2023-02-19T01:24:13;101714.63;;;9.18;100.00
35151;BME280;55720;51.972;4.624;2023-02-19T01:26:39;101679.00;;;9.18;100.00
35151;BME280;55720;51.972;4.624;2023-02-19T01:29:05;101684.97;;;9.20;100.00
35151;BME280;55720;51.972;4.624;2023-02-19T01:31:30;101662.44;;;9.23;100.00
35151;BME280;55720;51.972;4.624;2023-02-19T01:33:58;101662.97;;;9.25;100.00
35151;BME280;55720;51.972;4.624;2023-02-19T01:36:25;101637.69;;;9.28;100.00
35151;BME280;55720;51.972;4.624;2023-02-19T01:38:50;101627.84;;;9.27;100.00
35151;BME280;55720;51.972;4.624;2023-02-19T01:41:18;101623.47;;;9.26;100.00
35151;BME280;55720;51.972;4.624;2023-02-19T01:46:31;101585.91;;;9.27;100.00
35151;BME280;55720;51.972;4.624;2023-02-19T01:49:01;101587.75;;;9.31;100.00
35151;BME280;55720;51.972;4.624;2023-02-19T01:51:28;101551.22;;;9.36;100.00
35151;BME280;55720;51.972;4.624;2023-02-19T01:53:56;101528.47;;;9.35;100.00
35151;BME280;55720;51.972;4.624;2023-02-19T01:56:23;101507.22;;;9.41;100.00
35151;BME280;55720;51.972;4.624;2023-02-19T01:58:51;101478.53;;;9.38;100.00
35151;BME280;55720;51.972;4.624;2023-02-19T02:01:17;101458.22;;;9.39;100.00
35151;BME280;55720;51.972;4.624;2023-02-19T02:03:44;101426.44;;;9.38;100.00
35151;BME280;55720;51.972;4.624;2023-02-19T02:06:22;101412.75;;;9.38;100.00
35151;BME280;55720;51.972;4.624;2023-02-19T02:08:50;101388.28;;;9.42;100.00
35151;BME280;55720;51.972;4.624;2023-02-19T02:11:54;101372.13;;;9.40;100.00
35151;BME280;55720;51.972;4.624;2023-02-19T02:14:26;101345.22;;;9.43;100.00
35151;BME280;55720;51.972;4.624;2023-02-19T02:16:58;101326.84;;;9.43;100.00
35151;BME280;55720;51.972;4.624;2023-02-19T02:19:29;101308.16;;;9.45;100.00
35151;BME280;55720;51.972;4.624;2023-02-19T02:30:04;101240.63;;;9.49;100.00
35151;BME280;55720;51.972;4.624;2023-02-19T02:32:56;101226.47;;;9.56;100.00
35151;BME280;55720;51.972;4.624;2023-02-19T02:35:29;101210.00;;;9.56;100.00
35151;BME280;55720;51.972;4.624;2023-02-19T02:38:02;101218.56;;;9.54;100.00
35151;BME280;55720;51.972;4.624;2023-02-19T02:40:29;101203.88;;;9.50;100.00
35151;BME280;55720;51.972;4.624;2023-02-19T02:42:59;101198.88;;;9.52;100.00
35151;BME280;55720;51.972;4.624;2023-02-19T02:45:30;101182.25;;;9.49;100.00
35151;BME280;55720;51.972;4.624;2023-02-19T02:50:43;101168.72;;;9.44;100.00
35151;BME280;55720;51.972;4.624;2023-02-19T02:53:35;101166.28;;;9.42;100.00
35151;BME280;55720;51.972;4.624;2023-02-19T02:56:17;101167.09;;;9.43;100.00
35151;BME280;55720;51.972;4.624;2023-02-19T02:58:44;101161.25;;;9.44;100.00
35151;BME280;55720;51.972;4.624;2023-02-19T03:01:16;101163.06;;;9.40;100.00
35151;BME280;55720;51.972;4.624;2023-02-19T03:04:07;101167.84;;;9.34;100.00
35151;BME280;55720;51.972;4.624;2023-02-19T03:06:34;101175.09;;;9.30;100.00
35151;BME280;55720;51.972;4.624;2023-02-19T03:12:01;101179.56;;;9.26;100.00
35151;BME280;55720;51.972;4.624;2023-02-19T03:14:49;101176.34;;;9.24;100.00
35151;BME280;55720;51.972;4.624;2023-02-19T03:17:42;101188.94;;;9.25;100.00
35151;BME280;55720;51.972;4.624;2023-02-19T03:20:31;101203.06;;;9.19;100.00
35151;BME280;55720;51.972;4.624;2023-02-19T03:22:59;101202.09;;;9.15;100.00
35151;BME280;55720;51.972;4.624;2023-02-19T03:25:27;101220.41;;;9.06;100.00
35151;BME280;55720;51.972;4.624;2023-02-19T03:28:16;101241.47;;;8.97;100.00
35151;BME280;55720;51.972;4.624;2023-02-19T03:30:50;101252.03;;;8.89;100.00
35151;BME280;55720;51.972;4.624;2023-02-19T03:33:21;101286.81;;;8.89;100.00
35151;BME280;55720;51.972;4.624;2023-02-19T03:36:02;101306.63;;;8.86;100.00
35151;BME280;55720;51.972;4.624;2023-02-19T03:38:42;101336.75;;;8.86;100.00
35151;BME280;55720;51.972;4.624;2023-02-19T03:41:09;101355.28;;;8.89;100.00
35151;BME280;55720;51.972;4.624;2023-02-19T03:49:14;101392.47;;;8.90;100.00
35151;BME280;55720;51.972;4.624;2023-02-19T03:51:47;101397.03;;;8.95;100.00
35151;BME280;55720;51.972;4.624;2023-02-19T03:54:20;101397.84;;;8.95;100.00
35151;BME280;55720;51.972;4.624;2023-02-19T04:02:06;101404.16;;;8.96;100.00
35151;BME280;55720;51.972;4.624;2023-02-19T04:07:07;101408.44;;;8.88;100.00
35151;BME280;55720;51.972;4.624;2023-02-19T04:09:35;101396.38;;;8.89;100.00
35151;BME280;55720;51.972;4.624;2023-02-19T04:12:03;101398.59;;;8.87;100.00
35151;BME280;55720;51.972;4.624;2023-02-19T04:17:13;101395.97;;;8.82;100.00
35151;BME280;55720;51.972;4.624;2023-02-19T04:19:41;101402.56;;;8.81;100.00
35151;BME280;55720;51.972;4.624;2023-02-19T04:22:07;101405.59;;;8.79;100.00
35151;BME280;55720;51.972;4.624;2023-02-19T04:24:54;101431.56;;;8.82;100.00
35151;BME280;55720;51.972;4.624;2023-02-19T04:27:20;101436.22;;;8.81;100.00
35151;BME280;55720;51.972;4.624;2023-02-19T04:29:46;101445.88;;;8.79;100.00
35151;BME280;55720;51.972;4.624;2023-02-19T04:32:12;101470.59;;;8.74;100.00
35151;BME280;55720;51.972;4.624;2023-02-19T04:34:37;101494.84;;;8.67;100.00
35151;BME280;55720;51.972;4.624;2023-02-19T04:37:03;101521.69;;;8.65;100.00
35151;BME280;55720;51.972;4.624;2023-02-19T04:39:29;101560.13;;;8.60;100.00
35151;BME280;55720;51.972;4.624;2023-02-19T04:41:54;101589.72;;;8.58;100.00
35151;BME280;55720;51.972;4.624;2023-02-19T04:44:20;101629.97;;;8.57;100.00
35151;BME280;55720;51.972;4.624;2023-02-19T04:46:45;101655.50;;;8.53;100.00
35151;BME280;55720;51.972;4.624;2023-02-19T04:49:11;101692.47;;;8.50;100.00
35151;BME280;55720;51.972;4.624;2023-02-19T04:51:37;101713.06;;;8.48;100.00
35151;BME280;55720;51.972;4.624;2023-02-19T04:54:02;101729.47;;;8.48;100.00
35151;BME280;55720;51.972;4.624;2023-02-19T04:56:28;101745.59;;;8.49;100.00
35151;BME280;55720;51.972;4.624;2023-02-19T04:58:53;101750.78;;;8.51;100.00
35151;BME280;55720;51.972;4.624;2023-02-19T05:01:18;101752.41;;;8.52;100.00
35151;BME280;55720;51.972;4.624;2023-02-19T05:03:44;101761.13;;;8.54;100.00
35151;BME280;55720;51.972;4.624;2023-02-19T05:06:11;101752.34;;;8.57;100.00
35151;BME280;55720;51.972;4.624;2023-02-19T05:08:37;101744.84;;;8.62;100.00
35151;BME280;55720;51.972;4.624;2023-02-19T05:11:05;101732.19;;;8.66;100.00
35151;BME280;55720;51.972;4.624;2023-02-19T05:13:31;101712.75;;;8.68;100.00
35151;BME280;55720;51.972;4.624;2023-02-19T05:15:58;101700.16;;;8.67;100.00
35151;BME280;55720;51.972;4.624;2023-02-19T05:18:24;101685.06;;;8.69;100.00
35151;BME280;55720;51.972;4.624;2023-02-19T05:20:50;101673.22;;;8.74;100.00
35151;BME280;55720;51.972;4.624;2023-02-19T05:23:16;101659.53;;;8.74;100.00
35151;BME280;55720;51.972;4.624;2023-02-19T05:25:42;101652.94;;;8.75;100.00
35151;BME280;55720;51.972;4.624;2023-02-19T05:28:07;101646.94;;;8.73;100.00
35151;BME280;55720;51.972;4.624;2023-02-19T05:30:51;101641.03;;;8.66;100.00
35151;BME280;55720;51.972;4.624;2023-02-19T05:33:19;101640.00;;;8.62;100.00
35151;BME280;55720;51.972;4.624;2023-02-19T05:35:49;101649.94;;;8.58;100.00
35151;BME280;55720;51.972;4.624;2023-02-19T05:38:16;101654.47;;;8.49;100.00
35151;BME280;55720;51.972;4.624;2023-02-19T05:40:42;101665.72;;;8.47;100.00
35151;BME280;55720;51.972;4.624;2023-02-19T05:43:08;101667.13;;;8.45;100.00
35151;BME280;55720;51.972;4.624;2023-02-19T05:45:35;101679.72;;;8.46;100.00
35151;BME280;55720;51.972;4.624;2023-02-19T05:48:01;101689.25;;;8.48;100.00
35151;BME280;55720;51.972;4.624;2023-02-19T05:50:27;101706.03;;;8.42;100.00
35151;BME280;55720;51.972;4.624;2023-02-19T05:52:52;101719.41;;;8.43;100.00
35151;BME280;55720;51.972;4.624;2023-02-19T05:55:18;101733.91;;;8.44;100.00
35151;BME280;55720;51.972;4.624;2023-02-19T05:57:46;101756.13;;;8.42;100.00
35151;BME280;55720;51.972;4.624;2023-02-19T06:00:13;101764.31;;;8.42;100.00
35151;BME280;55720;51.972;4.624;2023-02-19T06:02:39;101790.34;;;8.39;100.00
35151;BME280;55720;51.972;4.624;2023-02-19T06:05:05;101819.34;;;8.40;100.00
35151;BME280;55720;51.972;4.624;2023-02-19T06:07:31;101824.91;;;8.35;100.00
35151;BME280;55720;51.972;4.624;2023-02-19T06:09:57;101845.66;;;8.36;100.00
35151;BME280;55720;51.972;4.624;2023-02-19T06:12:22;101870.06;;;8.33;100.00
35151;BME280;55720;51.972;4.624;2023-02-19T06:14:48;101880.19;;;8.32;100.00
35151;BME280;55720;51.972;4.624;2023-02-19T06:17:14;101898.50;;;8.32;100.00
35151;BME280;55720;51.972;4.624;2023-02-19T06:19:39;101906.50;;;8.28;100.00
35151;BME280;55720;51.972;4.624;2023-02-19T06:22:05;101918.25;;;8.29;100.00
35151;BME280;55720;51.972;4.624;2023-02-19T06:24:30;101937.69;;;8.27;100.00
35151;BME280;55720;51.972;4.624;2023-02-19T06:26:56;101945.91;;;8.27;100.00
35151;BME280;55720;51.972;4.624;2023-02-19T06:29:22;101956.84;;;8.27;100.00
35151;BME280;55720;51.972;4.624;2023-02-19T06:31:48;101967.78;;;8.27;100.00
35151;BME280;55720;51.972;4.624;2023-02-19T06:34:13;101985.84;;;8.28;100.00
35151;BME280;55720;51.972;4.624;2023-02-19T06:36:38;101990.50;;;8.28;100.00
35151;BME280;55720;51.972;4.624;2023-02-19T06:39:04;101997.34;;;8.30;100.00
35151;BME280;55720;51.972;4.624;2023-02-19T06:41:29;102006.63;;;8.29;100.00
35151;BME280;55720;51.972;4.624;2023-02-19T06:43:58;102004.13;;;8.33;100.00
35151;BME280;55720;51.972;4.624;2023-02-19T06:46:24;102008.78;;;8.32;100.00
35151;BME280;55720;51.972;4.624;2023-02-19T06:48:49;102027.44;;;8.30;100.00
35151;BME280;55720;51.972;4.624;2023-02-19T06:51:17;102023.06;;;8.29;100.00
35151;BME280;55720;51.972;4.624;2023-02-19T06:53:44;102026.06;;;8.28;100.00
35151;BME280;55720;51.972;4.624;2023-02-19T06:56:24;102029.34;;;8.30;100.00
35151;BME280;55720;51.972;4.624;2023-02-19T06:58:51;102024.38;;;8.32;100.00
35151;BME280;55720;51.972;4.624;2023-02-19T07:01:17;102027.44;;;8.30;100.00
35151;BME280;55720;51.972;4.624;2023-02-19T07:03:42;102023.28;;;8.33;100.00
35151;BME280;55720;51.972;4.624;2023-02-19T07:06:07;102027.44;;;8.30;100.00
35151;BME280;55720;51.972;4.624;2023-02-19T07:08:33;102032.09;;;8.30;100.00
35151;BME280;55720;51.972;4.624;2023-02-19T07:10:58;102047.69;;;8.29;100.00
35151;BME280;55720;51.972;4.624;2023-02-19T07:13:24;102061.09;;;8.26;100.00
35151;BME280;55720;51.972;4.624;2023-02-19T07:15:56;102059.19;;;8.26;100.00
35151;BME280;55720;51.972;4.624;2023-02-19T07:18:21;102069.03;;;8.27;100.00
35151;BME280;55720;51.972;4.624;2023-02-19T07:20:47;102083.81;;;8.26;100.00
35151;BME280;55720;51.972;4.624;2023-02-19T07:23:12;102090.91;;;8.27;100.00
35151;BME280;55720;51.972;4.624;2023-02-19T07:25:38;102105.69;;;8.26;100.00
35151;BME280;55720;51.972;4.624;2023-02-19T07:28:04;102121.56;;;8.29;100.00
35151;BME280;55720;51.972;4.624;2023-02-19T07:30:29;102129.22;;;8.27;100.00
35151;BME280;55720;51.972;4.624;2023-02-19T07:32:54;102128.66;;;8.25;100.00
35151;BME280;55720;51.972;4.624;2023-02-19T07:35:20;102139.06;;;8.28;100.00
35151;BME280;55720;51.972;4.624;2023-02-19T07:37:45;102153.84;;;8.27;100.00
35151;BME280;55720;51.972;4.624;2023-02-19T07:40:10;102162.06;;;8.27;100.00
35151;BME280;55720;51.972;4.624;2023-02-19T07:42:36;102183.13;;;8.27;100.00
35151;BME280;55720;51.972;4.624;2023-02-19T07:45:01;102194.06;;;8.27;100.00
35151;BME280;55720;51.972;4.624;2023-02-19T07:47:28;102203.91;;;8.28;100.00
35151;BME280;55720;51.972;4.624;2023-02-19T07:49:53;102215.13;;;8.26;100.00
35151;BME280;55720;51.972;4.624;2023-02-19T07:52:19;102225.56;;;8.24;100.00
35151;BME280;55720;51.972;4.624;2023-02-19T07:54:44;102222.28;;;8.22;100.00
35151;BME280;55720;51.972;4.624;2023-02-19T07:57:09;102232.66;;;8.25;100.00
35151;BME280;55720;51.972;4.624;2023-02-19T07:59:35;102227.47;;;8.24;100.00
35151;BME280;55720;51.972;4.624;2023-02-19T08:02:00;102239.25;;;8.19;100.00
35151;BME280;55720;51.972;4.624;2023-02-19T08:04:46;102242.78;;;8.25;100.00
35151;BME280;55720;51.972;4.624;2023-02-19T08:07:12;102247.44;;;8.24;100.00
35151;BME280;55720;51.972;4.624;2023-02-19T08:09:37;102253.75;;;8.20;100.00
35151;BME280;55720;51.972;4.624;2023-02-19T08:12:03;102256.72;;;8.28;100.00
35151;BME280;55720;51.972;4.624;2023-02-19T08:14:46;102273.16;;;8.28;100.00
35151;BME280;55720;51.972;4.624;2023-02-19T08:17:12;102275.34;;;8.21;100.00
35151;BME280;55720;51.972;4.624;2023-02-19T08:19:37;102280.00;;;8.26;100.00
35151;BME280;55720;51.972;4.624;2023-02-19T08:22:02;102280.00;;;8.31;100.00
35151;BME280;55720;51.972;4.624;2023-02-19T08:24:28;102278.34;;;8.35;100.00
35151;BME280;55720;51.972;4.624;2023-02-19T08:26:55;102287.91;;;8.32;100.00
35151;BME280;55720;51.972;4.624;2023-02-19T08:29:20;102284.63;;;8.35;100.00
35151;BME280;55720;51.972;4.624;2023-02-19T08:31:45;102280.28;;;8.29;100.00
35151;BME280;55720;51.972;4.624;2023-02-19T08:34:11;102287.91;;;8.37;100.00
35151;BME280;55720;51.972;4.624;2023-02-19T08:36:37;102277.44;;;8.45;100.00
35151;BME280;55720;51.972;4.624;2023-02-19T08:39:02;102273.88;;;8.44;100.00
35151;BME280;55720;51.972;4.624;2023-02-19T08:41:27;102271.75;;;8.36;100.00
35151;BME280;55720;51.972;4.624;2023-02-19T08:43:53;102263.78;;;8.45;100.00
35151;BME280;55720;51.972;4.624;2023-02-19T08:46:18;102244.59;;;8.45;100.00
35151;BME280;55720;51.972;4.624;2023-02-19T08:48:44;102234.19;;;8.47;100.00
35151;BME280;55720;51.972;4.624;2023-02-19T08:51:10;102225.66;;;8.53;100.00
35151;BME280;55720;51.972;4.624;2023-02-19T08:53:37;102215.47;;;8.64;100.00
35151;BME280;55720;51.972;4.624;2023-02-19T08:56:10;102204.19;;;8.65;100.00
35151;BME280;55720;51.972;4.624;2023-02-19T08:58:36;102191.16;;;8.57;100.00
35151;BME280;55720;51.972;4.624;2023-02-19T09:01:02;102166.91;;;8.74;100.00
35151;BME280;55720;51.972;4.624;2023-02-19T09:03:27;102152.38;;;8.74;100.00
35151;BME280;55720;51.972;4.624;2023-02-19T09:05:53;102129.47;;;8.65;100.00
35151;BME280;55720;51.972;4.624;2023-02-19T09:08:18;102090.00;;;8.71;100.00
35151;BME280;55720;51.972;4.624;2023-02-19T09:10:43;102073.88;;;8.93;100.00
35151;BME280;55720;51.972;4.624;2023-02-19T09:13:09;102036.03;;;8.95;100.00
35151;BME280;55720;51.972;4.624;2023-02-19T09:15:36;101996.81;;;9.00;100.00
35151;BME280;55720;51.972;4.624;2023-02-19T09:18:02;101965.88;;;8.99;100.00
35151;BME280;55720;51.972;4.624;2023-02-19T09:20:28;101943.50;;;8.92;100.00
35151;BME280;55720;51.972;4.624;2023-02-19T09:22:57;101920.91;;;8.81;100.00
35151;BME280;55720;51.972;4.624;2023-02-19T09:25:23;101901.97;;;8.85;100.00
35151;BME280;55720;51.972;4.624;2023-02-19T09:27:53;101878.00;;;8.96;100.00
35151;BME280;55720;51.972;4.624;2023-02-19T09:30:18;101867.69;;;9.06;100.00
35151;BME280;55720;51.972;4.624;2023-02-19T09:32:44;101867.63;;;9.11;100.00
35151;BME280;55720;51.972;4.624;2023-02-19T09:35:09;101833.47;;;9.22;100.00
35151;BME280;55720;51.972;4.624;2023-02-19T09:37:34;101801.66;;;9.40;100.00
35151;BME280;55720;51.972;4.624;2023-02-19T09:40:00;101780.19;;;9.28;100.00
35151;BME280;55720;51.972;4.624;2023-02-19T09:42:27;101763.28;;;9.40;100.00
35151;BME280;55720;51.972;4.624;2023-02-19T09:44:56;101739.22;;;9.64;100.00
35151;BME280;55720;51.972;4.624;2023-02-19T09:47:25;101702.06;;;9.72;100.00
35151;BME280;55720;51.972;4.624;2023-02-19T09:50:07;101684.56;;;9.81;100.00
35151;BME280;55720;51.972;4.624;2023-02-19T09:52:37;101656.47;;;9.76;100.00
35151;BME280;55720;51.972;4.624;2023-02-19T09:55:34;101625.88;;;9.82;100.00
35151;BME280;55720;51.972;4.624;2023-02-19T09:58:07;101612.09;;;9.96;100.00
35151;BME280;55720;51.972;4.624;2023-02-19T10:00:39;101604.50;;;9.93;100.00
35151;BME280;55720;51.972;4.624;2023-02-19T10:03:10;101608.09;;;9.80;100.00
35151;BME280;55720;51.972;4.624;2023-02-19T10:05:39;101614.09;;;9.68;100.00
35151;BME280;55720;51.972;4.624;2023-02-19T10:08:12;101618.78;;;9.40;100.00
35151;BME280;55720;51.972;4.624;2023-02-19T10:10:39;101628.75;;;9.23;100.00
35151;BME280;55720;51.972;4.624;2023-02-19T10:13:29;101647.31;;;9.12;100.00
35151;BME280;55720;51.972;4.624;2023-02-19T10:15:58;101662.66;;;9.13;100.00
35151;BME280;55720;51.972;4.624;2023-02-19T10:18:26;101642.66;;;9.26;100.00
35151;BME280;55720;51.972;4.624;2023-02-19T10:20:53;101658.19;;;9.17;100.00
35151;BME280;55720;51.972;4.624;2023-02-19T10:23:20;101665.38;;;9.13;100.00
35151;BME280;55720;51.972;4.624;2023-02-19T10:25:56;101683.94;;;9.16;100.00
35151;BME280;55720;51.972;4.624;2023-02-19T10:28:27;101698.09;;;8.91;100.00
35151;BME280;55720;51.972;4.624;2023-02-19T10:30:57;101692.97;;;9.03;100.00
35151;BME280;55720;51.972;4.624;2023-02-19T10:33:23;101700.00;;;9.23;100.00
35151;BME280;55720;51.972;4.624;2023-02-19T10:38:21;101704.00;;;8.98;100.00
35151;BME280;55720;51.972;4.624;2023-02-19T10:41:15;101706.97;;;9.02;100.00
35151;BME280;55720;51.972;4.624;2023-02-19T10:43:49;101706.75;;;8.98;100.00
35151;BME280;55720;51.972;4.624;2023-02-19T10:46:27;101723.06;;;8.89;100.00
35151;BME280;55720;51.972;4.624;2023-02-19T10:48:56;101718.38;;;8.90;100.00
35151;BME280;55720;51.972;4.624;2023-02-19T10:51:37;101720.22;;;8.95;100.00
35151;BME280;55720;51.972;4.624;2023-02-19T10:54:06;101717.81;;;8.93;100.00
35151;BME280;55720;51.972;4.624;2023-02-19T10:56:32;101729.66;;;8.88;100.00
35151;BME280;55720;51.972;4.624;2023-02-19T11:04:20;101718.03;;;8.97;100.00
35151;BME280;55720;51.972;4.624;2023-02-19T11:06:45;101711.72;;;8.96;100.00
35151;BME280;55720;51.972;4.624;2023-02-19T11:09:41;101719.94;;;8.96;100.00
35151;BME280;55720;51.972;4.624;2023-02-19T11:12:07;101711.28;;;8.89;100.00
35151;BME280;55720;51.972;4.624;2023-02-19T11:14:33;101698.53;;;8.98;100.00
35151;BME280;55720;51.972;4.624;2023-02-19T11:17:01;101697.47;;;9.26;100.00
35151;BME280;55720;51.972;4.624;2023-02-19T11:19:37;101688.34;;;9.45;100.00
35151;BME280;55720;51.972;4.624;2023-02-19T11:24:55;101675.47;;;10.22;100.00
35151;BME280;55720;51.972;4.624;2023-02-19T11:27:25;101673.44;;;10.72;100.00
35151;BME280;55720;51.972;4.624;2023-02-19T11:29:51;101692.28;;;10.87;100.00
35151;BME280;55720;51.972;4.624;2023-02-19T11:34:45;101733.22;;;10.53;100.00
35151;BME280;55720;51.972;4.624;2023-02-19T11:37:20;101746.16;;;10.52;100.00
35151;BME280;55720;51.972;4.624;2023-02-19T11:39:51;101763.75;;;10.51;100.00
35151;BME280;55720;51.972;4.624;2023-02-19T11:50:28;101755.88;;;10.09;100.00
35151;BME280;55720;51.972;4.624;2023-02-19T12:28:01;101717.16;;;9.28;100.00
35151;BME280;55720;51.972;4.624;2023-02-19T12:33:45;101714.00;;;9.21;100.00
35151;BME280;55720;51.972;4.624;2023-02-19T12:41:44;101682.59;;;10.23;100.00
35151;BME280;55720;51.972;4.624;2023-02-19T12:44:57;101689.09;;;10.49;100.00
35151;BME280;55720;51.972;4.624;2023-02-19T12:47:04;101700.72;;;10.46;100.00
35151;BME280;55720;51.972;4.624;2023-02-19T12:49:35;101704.06;;;10.43;100.00
35151;BME280;55720;51.972;4.624;2023-02-19T12:52:26;101720.81;;;9.92;100.00
35151;BME280;55720;51.972;4.624;2023-02-19T12:54:55;101734.56;;;9.78;100.00
35151;BME280;55720;51.972;4.624;2023-02-19T12:57:33;101742.78;;;9.78;100.00
35151;BME280;55720;51.972;4.624;2023-02-19T13:00:11;101752.25;;;9.72;100.00
35151;BME280;55720;51.972;4.624;2023-02-19T13:02:48;101773.25;;;9.63;100.00
35151;BME280;55720;51.972;4.624;2023-02-19T13:05:17;101776.09;;;9.72;100.00
35151;BME280;55720;51.972;4.624;2023-02-19T13:08:14;101787.53;;;9.47;100.00
35151;BME280;55720;51.972;4.624;2023-02-19T13:10:54;101791.63;;;9.63;100.00
35151;BME280;55720;51.972;4.624;2023-02-19T13:13:29;101794.06;;;9.78;100.00
35151;BME280;55720;51.972;4.624;2023-02-19T13:16:01;101793.88;;;9.74;100.00
35151;BME280;55720;51.972;4.624;2023-02-19T13:18:33;101814.72;;;9.75;100.00
35151;BME280;55720;51.972;4.624;2023-02-19T13:21:00;101830.81;;;9.63;100.00
35151;BME280;55720;51.972;4.624;2023-02-19T13:23:30;101841.50;;;9.65;100.00
35151;BME280;55720;51.972;4.624;2023-02-19T13:35:23;101908.41;;;9.64;100.00
35151;BME280;55720;51.972;4.624;2023-02-19T13:37:50;101914.91;;;9.54;100.00
35151;BME280;55720;51.972;4.624;2023-02-19T13:40:38;101917.84;;;9.90;100.00
35151;BME280;55720;51.972;4.624;2023-02-19T13:45:45;101928.59;;;10.19;100.00
35151;BME280;55720;51.972;4.624;2023-02-19T13:48:33;101930.22;;;10.33;100.00
35151;BME280;55720;51.972;4.624;2023-02-19T14:04:22;101987.66;;;9.47;100.00
35151;BME280;55720;51.972;4.624;2023-02-19T14:14:50;101967.28;;;9.15;100.00
35151;BME280;55720;51.972;4.624;2023-02-19T14:27:45;101941.66;;;9.25;100.00
35151;BME280;55720;51.972;4.624;2023-02-19T14:30:12;101946.31;;;9.06;100.00
35151;BME280;55720;51.972;4.624;2023-02-19T14:32:40;101942.09;;;8.95;100.00
35151;BME280;55720;51.972;4.624;2023-02-19T14:35:15;101954.69;;;8.72;100.00
35151;BME280;55720;51.972;4.624;2023-02-19T14:37:43;101926.66;;;8.80;100.00
35151;BME280;55720;51.972;4.624;2023-02-19T14:40:17;101908.78;;;9.06;100.00
35151;BME280;55720;51.972;4.624;2023-02-19T14:42:46;101905.22;;;9.24;100.00
35151;BME280;55720;51.972;4.624;2023-02-19T14:45:13;101923.59;;;9.24;100.00
35151;BME280;55720;51.972;4.624;2023-02-19T14:47:40;101927.97;;;9.06;100.00
35151;BME280;55720;51.972;4.624;2023-02-19T14:50:13;101922.53;;;9.20;100.00
35151;BME280;55720;51.972;4.624;2023-02-19T14:52:43;101910.69;;;9.43;100.00
35151;BME280;55720;51.972;4.624;2023-02-19T14:57:46;101933.06;;;9.31;100.00
35151;BME280;55720;51.972;4.624;2023-02-19T15:00:29;101934.38;;;9.15;100.00
35151;BME280;55720;51.972;4.624;2023-02-19T15:02:57;101950.41;;;8.66;100.00
35151;BME280;55720;51.972;4.624;2023-02-19T15:05:32;101947.66;;;8.66;100.00
35151;BME280;55720;51.972;4.624;2023-02-19T15:08:00;101934.28;;;8.64;100.00
35151;BME280;55720;51.972;4.624;2023-02-19T15:10:28;101920.69;;;8.54;100.00
35151;BME280;55720;51.972;4.624;2023-02-19T15:13:05;101916.88;;;8.31;100.00
35151;BME280;55720;51.972;4.624;2023-02-19T15:15:35;101903.47;;;8.30;100.00
35151;BME280;55720;51.972;4.624;2023-02-19T15:18:02;101896.59;;;8.32;100.00
35151;BME280;55720;51.972;4.624;2023-02-19T15:20:32;101884.66;;;8.47;100.00
35151;BME280;55720;51.972;4.624;2023-02-19T15:22:59;101871.97;;;8.32;100.00
35151;BME280;55720;51.972;4.624;2023-02-19T15:25:33;101877.50;;;8.27;100.00